createdAt,value
2022-07-27T00:02:10.667Z,18.80
2022-07-27T00:04:37.658Z,18.70
2022-07-27T00:07:05.031Z,18.70
2022-07-27T00:09:31.740Z,18.80
2022-07-27T00:11:58.430Z,18.70
2022-07-27T00:14:25.212Z,18.70
2022-07-27T00:16:51.959Z,18.70
2022-07-27T00:19:19.858Z,18.60
2022-07-27T00:21:46.665Z,18.60
2022-07-27T00:24:13.370Z,18.60
2022-07-27T00:26:40.033Z,18.60
2022-07-27T00:29:06.863Z,18.60
2022-07-27T00:31:33.692Z,18.60
2022-07-27T00:34:00.606Z,18.50
2022-07-27T00:36:27.602Z,18.40
2022-07-27T00:38:54.336Z,18.40
2022-07-27T00:41:21.109Z,18.80
2022-07-27T00:43:51.283Z,18.30
2022-07-27T00:46:18.039Z,18.30
2022-07-27T00:48:44.806Z,18.30
2022-07-27T00:51:11.683Z,18.20
2022-07-27T00:53:38.477Z,18.20
2022-07-27T00:56:05.475Z,18.20
2022-07-27T00:58:32.462Z,18.10
2022-07-27T01:00:59.176Z,18.10
2022-07-27T01:03:29.757Z,18.00
2022-07-27T01:05:57.645Z,18.00
2022-07-27T01:08:25.246Z,18.00
2022-07-27T01:10:52.725Z,18.00
2022-07-27T01:13:19.743Z,18.40
2022-07-27T01:15:46.578Z,17.90
2022-07-27T01:18:33.241Z,17.80
2022-07-27T01:21:01.033Z,17.70
2022-07-27T01:23:28.300Z,17.50
2022-07-27T01:25:55.423Z,17.50
2022-07-27T01:28:22.166Z,17.40
2022-07-27T01:30:50.340Z,17.30
2022-07-27T01:33:17.150Z,17.20
2022-07-27T01:35:43.793Z,17.10
2022-07-27T01:38:11.419Z,16.90
2022-07-27T01:40:39.667Z,16.80
2022-07-27T01:43:06.648Z,16.70
2022-07-27T01:45:33.385Z,17.50
2022-07-27T01:48:00.060Z,16.80
2022-07-27T01:50:26.804Z,16.80
2022-07-27T01:52:53.587Z,16.80
2022-07-27T01:55:20.335Z,16.90
2022-07-27T01:57:47.081Z,16.90
2022-07-27T02:00:13.906Z,17.00
2022-07-27T02:02:40.763Z,17.10
2022-07-27T02:05:07.893Z,17.10
2022-07-27T02:07:35.902Z,17.10
2022-07-27T02:10:02.637Z,17.00
2022-07-27T02:12:35.554Z,17.00
2022-07-27T02:15:05.994Z,17.10
2022-07-27T02:17:33.003Z,16.90
2022-07-27T02:20:01.932Z,16.80
2022-07-27T02:22:28.647Z,16.70
2022-07-27T02:24:55.500Z,15.00
2022-07-27T02:27:22.237Z,16.60
2022-07-27T02:29:48.973Z,16.50
2022-07-27T02:32:16.151Z,16.50
2022-07-27T02:34:43.004Z,16.60
2022-07-27T02:37:09.882Z,16.60
2022-07-27T02:39:36.543Z,16.60
2022-07-27T02:42:03.395Z,18.00
2022-07-27T02:44:30.201Z,16.60
2022-07-27T02:46:56.970Z,16.60
2022-07-27T02:49:23.799Z,16.70
2022-07-27T02:51:51.992Z,16.70
2022-07-27T02:54:19.276Z,16.70
2022-07-27T02:56:46.112Z,16.80
2022-07-27T02:59:13.209Z,16.80
2022-07-27T03:01:40.449Z,18.70
2022-07-27T03:04:07.192Z,16.90
2022-07-27T03:06:33.880Z,17.00
2022-07-27T03:09:00.560Z,18.60
2022-07-27T03:11:27.261Z,17.10
2022-07-27T03:13:53.933Z,17.00
2022-07-27T03:16:20.641Z,20.10
2022-07-27T03:18:49.623Z,17.00
2022-07-27T03:21:16.770Z,17.00
2022-07-27T03:23:43.429Z,16.90
2022-07-27T03:26:10.101Z,16.90
2022-07-27T03:28:36.904Z,17.00
2022-07-27T03:31:04.015Z,17.00
2022-07-27T03:33:30.778Z,17.00
2022-07-27T03:35:57.580Z,17.00
2022-07-27T03:38:24.326Z,17.10
2022-07-27T03:40:51.093Z,17.10
2022-07-27T03:43:17.856Z,18.00
2022-07-27T03:45:44.743Z,16.70
2022-07-27T03:48:11.528Z,16.60
2022-07-27T03:50:38.333Z,17.90
2022-07-27T03:53:05.017Z,16.70
2022-07-27T03:55:31.871Z,16.70
2022-07-27T03:57:59.093Z,16.70
2022-07-27T04:00:25.895Z,16.60
2022-07-27T04:02:52.637Z,16.70
2022-07-27T04:05:20.917Z,16.70
2022-07-27T04:07:47.606Z,16.70
2022-07-27T04:10:18.765Z,16.80
2022-07-27T04:12:46.771Z,19.70
2022-07-27T04:15:14.553Z,16.70
2022-07-27T04:17:55.502Z,16.40
2022-07-27T04:20:24.076Z,16.40
2022-07-27T04:22:50.769Z,15.10
2022-07-27T04:25:17.449Z,16.40
2022-07-27T04:27:44.213Z,16.40
2022-07-27T04:30:11.086Z,17.30
2022-07-27T04:32:37.957Z,16.30
2022-07-27T04:35:05.055Z,16.30
2022-07-27T04:37:32.144Z,16.30
2022-07-27T04:39:58.942Z,16.40
2022-07-27T04:42:25.725Z,16.30
2022-07-27T04:44:52.415Z,16.30
2022-07-27T04:47:19.227Z,16.30
2022-07-27T04:49:45.962Z,16.40
2022-07-27T04:52:14.709Z,16.40
2022-07-27T04:54:41.357Z,16.50
2022-07-27T04:57:08.167Z,16.50
2022-07-27T04:59:34.870Z,16.50
2022-07-27T05:02:01.751Z,16.60
2022-07-27T05:04:28.483Z,16.70
2022-07-27T05:06:57.233Z,16.60
2022-07-27T05:09:23.975Z,16.70
2022-07-27T05:11:51.160Z,15.60
2022-07-27T05:14:19.773Z,16.80
2022-07-27T05:16:48.322Z,16.70
2022-07-27T05:19:15.422Z,16.80
2022-07-27T05:21:42.441Z,16.90
2022-07-27T05:24:10.249Z,16.90
2022-07-27T05:26:37.585Z,17.00
2022-07-27T05:29:04.360Z,17.00
2022-07-27T05:31:31.280Z,17.00
2022-07-27T05:33:58.688Z,17.00
2022-07-27T05:36:25.689Z,17.10
2022-07-27T05:38:52.344Z,17.10
2022-07-27T05:41:25.973Z,17.20
2022-07-27T05:43:54.567Z,17.20
2022-07-27T05:46:21.843Z,17.30
2022-07-27T05:48:48.813Z,17.40
2022-07-27T05:51:15.652Z,17.50
2022-07-27T05:53:42.399Z,17.50
2022-07-27T05:56:09.221Z,18.60
2022-07-27T05:58:36.056Z,17.70
2022-07-27T06:01:02.809Z,18.20
2022-07-27T06:03:29.605Z,17.80
2022-07-27T06:06:16.333Z,18.00
2022-07-27T06:08:42.981Z,20.00
2022-07-27T06:11:09.739Z,18.20
2022-07-27T06:13:36.764Z,18.10
2022-07-27T06:16:04.225Z,18.30
2022-07-27T06:18:31.182Z,18.10
2022-07-27T06:20:58.031Z,18.20
2022-07-27T06:23:24.828Z,18.10
2022-07-27T06:25:51.442Z,18.10
2022-07-27T06:28:19.268Z,18.20
2022-07-27T06:30:46.958Z,18.20
2022-07-27T06:33:14.438Z,18.20
2022-07-27T06:35:41.428Z,18.20
2022-07-27T06:38:08.572Z,18.20
2022-07-27T06:40:35.651Z,18.20
2022-07-27T06:43:02.357Z,18.20
2022-07-27T06:45:29.148Z,18.20
2022-07-27T06:47:55.848Z,18.20
2022-07-27T06:50:22.606Z,18.30
2022-07-27T06:52:49.803Z,19.00
2022-07-27T06:55:16.624Z,18.30
2022-07-27T06:57:43.512Z,18.30
2022-07-27T07:00:10.542Z,18.40
2022-07-27T07:02:37.209Z,18.40
2022-07-27T07:05:04.227Z,18.50
2022-07-27T07:07:31.718Z,18.60
2022-07-27T07:09:58.538Z,17.20
2022-07-27T07:12:25.787Z,18.70
2022-07-27T07:14:52.630Z,18.80
2022-07-27T07:17:19.852Z,19.00
2022-07-27T07:19:46.765Z,19.10
2022-07-27T07:22:13.548Z,19.10
2022-07-27T07:24:40.242Z,19.20
2022-07-27T07:27:07.047Z,19.10
2022-07-27T07:29:33.705Z,19.20
2022-07-27T07:32:00.453Z,19.10
2022-07-27T07:34:28.758Z,19.10
2022-07-27T07:36:55.735Z,19.20
2022-07-27T07:39:23.286Z,19.20
2022-07-27T07:41:53.560Z,19.20
2022-07-27T07:44:20.187Z,19.40
2022-07-27T07:46:47.522Z,19.60
2022-07-27T07:49:14.680Z,19.50
2022-07-27T07:51:41.729Z,19.70
2022-07-27T07:54:08.843Z,19.80
2022-07-27T07:56:35.526Z,20.00
2022-07-27T07:59:04.885Z,20.00
2022-07-27T08:01:31.602Z,20.10
2022-07-27T08:03:58.419Z,20.00
2022-07-27T08:06:25.196Z,20.10
2022-07-27T08:08:52.051Z,20.00
2022-07-27T08:11:18.808Z,20.00
2022-07-27T08:13:45.678Z,20.20
2022-07-27T08:16:12.454Z,20.30
2022-07-27T08:18:39.155Z,20.20
2022-07-27T08:21:05.931Z,20.30
2022-07-27T08:23:32.723Z,20.30
2022-07-27T08:26:04.162Z,20.30
2022-07-27T08:28:36.767Z,20.30
2022-07-27T08:31:13.821Z,20.30
2022-07-27T08:33:41.451Z,20.50
2022-07-27T08:36:08.274Z,20.50
2022-07-27T08:38:34.903Z,20.50
2022-07-27T08:41:02.719Z,20.50
2022-07-27T08:43:30.758Z,20.40
2022-07-27T08:45:58.572Z,20.40
2022-07-27T08:48:26.065Z,20.40
2022-07-27T08:50:53.141Z,20.50
2022-07-27T08:53:22.127Z,20.70
2022-07-27T08:55:49.472Z,20.90
2022-07-27T08:58:16.297Z,21.00
2022-07-27T09:00:45.127Z,20.90
2022-07-27T09:03:18.179Z,20.90
2022-07-27T09:05:46.939Z,20.90
2022-07-27T09:08:30.188Z,20.80
2022-07-27T09:10:59.434Z,20.80
2022-07-27T09:13:27.593Z,20.90
2022-07-27T09:16:18.662Z,21.00
2022-07-27T09:18:44.585Z,21.20
2022-07-27T09:21:21.508Z,21.50
2022-07-27T09:23:49.791Z,21.60
2022-07-27T09:26:30.613Z,22.00
2022-07-27T09:28:59.223Z,22.10
2022-07-27T09:31:28.887Z,22.20
2022-07-27T09:33:56.566Z,22.50
2022-07-27T09:36:24.174Z,22.50
2022-07-27T09:38:55.155Z,22.30
2022-07-27T09:41:26.964Z,22.10
2022-07-27T09:46:42.402Z,22.30
2022-07-27T09:49:28.684Z,22.20
2022-07-27T09:51:59.898Z,22.10
2022-07-27T09:54:27.101Z,21.90
2022-07-27T09:57:01.287Z,22.00
2022-07-27T09:59:28.506Z,22.00
2022-07-27T10:01:56.137Z,21.80
2022-07-27T10:04:23.701Z,20.30
2022-07-27T10:07:02.818Z,21.70
2022-07-27T10:09:31.867Z,21.60
2022-07-27T10:11:58.548Z,21.70
2022-07-27T10:14:25.752Z,21.70
2022-07-27T10:16:52.900Z,21.70
2022-07-27T10:19:34.162Z,21.70
2022-07-27T10:22:01.047Z,21.60
2022-07-27T10:24:29.187Z,21.70
2022-07-27T10:26:55.919Z,21.80
2022-07-27T10:29:23.494Z,21.80
2022-07-27T10:31:53.173Z,21.90
2022-07-27T10:34:33.529Z,22.00
2022-07-27T10:37:08.541Z,22.10
2022-07-27T10:39:36.638Z,22.10
2022-07-27T10:42:22.115Z,22.00
2022-07-27T10:44:54.852Z,21.90
2022-07-27T10:47:35.199Z,22.00
2022-07-27T10:50:17.153Z,22.30
2022-07-27T10:52:57.742Z,22.40
2022-07-27T10:55:30.776Z,22.50
2022-07-27T10:57:58.149Z,22.60
2022-07-27T11:00:43.905Z,22.60
2022-07-27T11:03:19.467Z,22.70
2022-07-27T11:05:59.982Z,22.50
2022-07-27T11:08:46.719Z,22.70
2022-07-27T11:11:15.549Z,23.00
2022-07-27T11:13:42.255Z,23.20
2022-07-27T11:16:26.148Z,23.60
2022-07-27T11:19:04.242Z,23.70
2022-07-27T11:21:32.942Z,23.70
2022-07-27T11:24:02.673Z,23.70
2022-07-27T11:26:30.704Z,23.50
2022-07-27T11:28:57.447Z,23.60
2022-07-27T11:31:54.741Z,23.30
2022-07-27T11:34:13.967Z,23.10
2022-07-27T11:36:45.399Z,23.10
2022-07-27T11:39:14.855Z,23.30
2022-07-27T11:42:07.215Z,23.40
2022-07-27T11:44:29.640Z,23.50
2022-07-27T11:47:01.591Z,23.80
2022-07-27T11:49:30.090Z,24.00
2022-07-27T11:52:06.984Z,24.00
2022-07-27T11:54:38.022Z,24.10
2022-07-27T11:57:04.761Z,24.10
2022-07-27T11:59:32.530Z,23.90
2022-07-27T12:02:04.953Z,23.70
2022-07-27T12:04:32.997Z,23.60
2022-07-27T12:07:01.301Z,23.50
2022-07-27T12:09:33.487Z,23.50
2022-07-27T12:12:08.289Z,23.50
2022-07-27T12:14:38.875Z,23.50
2022-07-27T12:17:19.183Z,23.40
2022-07-27T12:19:53.195Z,23.50
2022-07-27T12:22:46.098Z,23.00
2022-07-27T12:25:19.031Z,22.90
2022-07-27T12:28:07.409Z,22.70
2022-07-27T12:30:38.243Z,22.80
2022-07-27T12:33:06.808Z,23.00
2022-07-27T12:35:45.739Z,23.30
2022-07-27T12:38:13.367Z,23.50
2022-07-27T12:40:47.404Z,23.70
2022-07-27T12:43:21.309Z,25.90
2022-07-27T12:45:49.004Z,23.90
2022-07-27T12:48:23.319Z,24.00
2022-07-27T12:51:04.708Z,23.80
2022-07-27T12:53:32.567Z,23.50
2022-07-27T12:56:00.359Z,23.30
2022-07-27T12:58:27.126Z,23.10
2022-07-27T13:00:54.798Z,23.10
2022-07-27T13:03:21.533Z,23.00
2022-07-27T13:05:48.584Z,23.00
2022-07-27T13:08:16.541Z,23.10
2022-07-27T13:10:44.539Z,23.30
2022-07-27T13:13:11.452Z,23.30
2022-07-27T13:15:38.419Z,23.60
2022-07-27T13:18:05.208Z,23.80
2022-07-27T13:20:31.984Z,23.90
2022-07-27T13:22:58.712Z,24.00
2022-07-27T13:25:25.396Z,23.90
2022-07-27T13:27:52.398Z,24.10
2022-07-27T13:30:19.400Z,24.10
2022-07-27T13:32:47.078Z,24.10
2022-07-27T13:35:14.120Z,24.10
2022-07-27T13:37:40.879Z,24.10
2022-07-27T13:40:08.459Z,24.00
2022-07-27T13:42:36.310Z,26.30
2022-07-27T13:45:09.971Z,23.70
2022-07-27T13:47:38.412Z,23.40
2022-07-27T13:50:06.521Z,23.30
2022-07-27T13:52:33.809Z,23.20
2022-07-27T13:55:00.582Z,23.20
2022-07-27T13:57:27.370Z,23.40
2022-07-27T13:59:54.125Z,23.40
2022-07-27T14:02:23.226Z,23.50
2022-07-27T14:04:52.699Z,23.50
2022-07-27T14:07:20.737Z,23.50
2022-07-27T14:10:09.045Z,23.50
2022-07-27T14:12:36.355Z,23.60
2022-07-27T14:15:03.500Z,23.60
2022-07-27T14:17:30.179Z,23.40
2022-07-27T14:19:57.111Z,23.50
2022-07-27T14:22:23.730Z,23.50
2022-07-27T14:24:51.397Z,23.50
2022-07-27T14:27:18.761Z,23.40
2022-07-27T14:29:46.504Z,23.50
2022-07-27T14:32:13.208Z,23.40
2022-07-27T14:34:40.035Z,23.30
2022-07-27T14:37:06.762Z,23.30
2022-07-27T14:39:33.623Z,23.30
2022-07-27T14:42:01.407Z,23.10
2022-07-27T14:44:28.686Z,23.20
2022-07-27T14:46:55.480Z,23.30
2022-07-27T14:49:26.298Z,23.40
2022-07-27T14:51:53.373Z,23.20
2022-07-27T14:54:20.245Z,22.90
2022-07-27T14:56:46.984Z,22.90
2022-07-27T14:59:14.554Z,22.90
2022-07-27T15:01:41.971Z,22.90
2022-07-27T15:04:08.919Z,22.80
2022-07-27T15:06:39.107Z,23.00
2022-07-27T15:09:07.785Z,23.20
2022-07-27T15:11:34.613Z,23.50
2022-07-27T15:14:01.288Z,23.40
2022-07-27T15:16:31.795Z,23.30
2022-07-27T15:18:58.637Z,23.30
2022-07-27T15:21:25.481Z,23.30
2022-07-27T15:23:52.128Z,23.40
2022-07-27T15:26:18.879Z,23.40
2022-07-27T15:28:45.752Z,23.40
2022-07-27T15:31:13.350Z,23.50
2022-07-27T15:33:40.486Z,23.40
2022-07-27T15:36:07.395Z,23.40
2022-07-27T15:38:34.173Z,23.30
2022-07-27T15:41:00.865Z,23.40
2022-07-27T15:43:27.602Z,23.30
2022-07-27T15:45:54.313Z,23.20
2022-07-27T15:48:21.262Z,23.10
2022-07-27T15:50:49.077Z,23.10
2022-07-27T15:53:16.301Z,23.20
2022-07-27T15:55:43.422Z,23.30
2022-07-27T15:58:10.800Z,23.40
2022-07-27T16:00:40.969Z,23.40
2022-07-27T16:03:12.122Z,23.40
2022-07-27T16:05:39.901Z,23.40
2022-07-27T16:08:09.366Z,23.50
2022-07-27T16:10:37.045Z,23.60
2022-07-27T16:13:05.485Z,23.50
2022-07-27T16:15:51.459Z,23.40
2022-07-27T16:18:18.757Z,23.40
2022-07-27T16:20:45.476Z,23.40
2022-07-27T16:23:18.890Z,23.30
2022-07-27T16:26:07.517Z,23.40
2022-07-27T16:28:36.864Z,23.30
2022-07-27T16:31:04.975Z,23.20
2022-07-27T16:33:31.809Z,23.20
2022-07-27T16:35:58.553Z,23.20
2022-07-27T16:38:25.658Z,23.20
2022-07-27T16:40:52.341Z,23.30
2022-07-27T16:43:19.001Z,23.40
2022-07-27T16:45:45.655Z,23.30
2022-07-27T16:48:12.892Z,23.30
2022-07-27T16:50:40.577Z,23.30
2022-07-27T16:53:07.356Z,23.30
2022-07-27T16:55:34.004Z,23.30
2022-07-27T16:58:00.651Z,23.30
2022-07-27T17:00:27.301Z,23.20
2022-07-27T17:02:54.084Z,23.30
2022-07-27T17:05:20.859Z,23.30
2022-07-27T17:07:50.344Z,23.20
2022-07-27T17:10:27.241Z,23.20
2022-07-27T17:12:54.554Z,23.20
2022-07-27T17:15:22.667Z,23.00
2022-07-27T17:17:49.710Z,22.90
2022-07-27T17:20:32.802Z,22.90
2022-07-27T17:23:03.365Z,22.90
2022-07-27T17:25:30.077Z,20.20
2022-07-27T17:27:56.910Z,22.90
2022-07-27T17:30:24.097Z,22.90
2022-07-27T17:32:51.016Z,22.90
2022-07-27T17:35:17.727Z,22.80
2022-07-27T17:38:05.153Z,22.80
2022-07-27T17:40:32.716Z,22.90
2022-07-27T17:42:59.388Z,22.70
2022-07-27T17:45:26.064Z,22.70
2022-07-27T17:47:52.912Z,22.70
2022-07-27T17:50:19.816Z,22.60
2022-07-27T17:52:46.543Z,22.60
2022-07-27T17:55:13.321Z,22.50
2022-07-27T17:57:40.143Z,22.40
2022-07-27T18:00:07.891Z,22.30
2022-07-27T18:02:36.926Z,22.30
2022-07-27T18:05:03.957Z,22.30
2022-07-27T18:07:30.715Z,22.20
2022-07-27T18:10:06.249Z,22.20
2022-07-27T18:12:34.526Z,22.10
2022-07-27T18:15:20.014Z,22.10
2022-07-27T18:17:46.641Z,22.10
2022-07-27T18:20:14.327Z,22.00
2022-07-27T18:22:41.054Z,22.00
2022-07-27T18:25:08.331Z,22.00
2022-07-27T18:27:35.649Z,22.00
2022-07-27T18:30:04.558Z,21.90
2022-07-27T18:32:31.477Z,21.90
2022-07-27T18:34:58.420Z,21.80
2022-07-27T18:37:25.116Z,21.70
2022-07-27T18:39:51.833Z,21.70
2022-07-27T18:42:18.555Z,21.60
2022-07-27T18:44:45.205Z,21.50
2022-07-27T18:47:11.847Z,21.50
2022-07-27T18:49:38.527Z,21.40
2022-07-27T18:52:05.722Z,21.40
2022-07-27T18:54:33.002Z,21.40
2022-07-27T18:57:00.038Z,21.30
2022-07-27T18:59:26.778Z,21.30
2022-07-27T19:01:53.634Z,21.30
2022-07-27T19:04:20.336Z,21.30
2022-07-27T19:06:51.482Z,21.20
2022-07-27T19:09:18.130Z,21.20
2022-07-27T19:11:44.822Z,21.20
2022-07-27T19:14:11.525Z,21.20
2022-07-27T19:16:38.397Z,21.10
2022-07-27T19:19:07.736Z,21.20
2022-07-27T19:21:38.414Z,21.20
2022-07-27T19:24:05.238Z,21.20
2022-07-27T19:26:32.711Z,21.10
2022-07-27T19:28:59.410Z,21.10
2022-07-27T19:31:26.233Z,21.10
2022-07-27T19:33:53.065Z,21.00
2022-07-27T19:36:20.548Z,21.00
2022-07-27T19:38:47.152Z,21.00
2022-07-27T19:41:13.873Z,20.90
2022-07-27T19:43:40.609Z,20.90
2022-07-27T19:46:07.402Z,20.90
2022-07-27T19:48:34.202Z,20.80
2022-07-27T19:51:06.510Z,20.80
2022-07-27T19:53:35.685Z,20.70
2022-07-27T19:56:02.954Z,20.80
2022-07-27T19:58:29.885Z,20.70
2022-07-27T20:00:56.622Z,20.60
2022-07-27T20:03:23.410Z,20.60
2022-07-27T20:05:50.052Z,20.60
2022-07-27T20:08:17.033Z,20.60
2022-07-27T20:10:44.148Z,20.60
2022-07-27T20:13:10.931Z,20.50
2022-07-27T20:15:37.637Z,20.40
2022-07-27T20:27:14.579Z,20.20
2022-07-27T20:29:41.289Z,17.50
2022-07-27T20:32:31.330Z,17.90
2022-07-27T20:35:45.264Z,20.60
2022-07-27T20:38:55.442Z,18.00
2022-07-27T20:42:00.032Z,22.00
2022-07-27T20:47:14.713Z,19.70
2022-07-27T20:49:41.457Z,22.50
2022-07-27T20:52:08.628Z,19.40
2022-07-27T20:54:38.035Z,19.40
2022-07-27T20:57:05.496Z,20.70
2022-07-27T20:59:33.339Z,17.70
2022-07-27T21:02:00.673Z,19.20
2022-07-27T21:04:27.376Z,19.20
2022-07-27T21:06:54.385Z,21.70
2022-07-27T21:09:27.280Z,20.30
2022-07-27T21:11:54.093Z,18.50
2022-07-27T21:14:20.822Z,17.00
2022-07-27T21:16:49.983Z,18.90
2022-07-27T21:19:22.205Z,18.90
2022-07-27T21:21:55.617Z,18.80
2022-07-27T21:24:22.905Z,17.40
2022-07-27T21:29:39.407Z,21.50
2022-07-27T21:32:08.568Z,18.80
2022-07-27T21:34:35.364Z,18.50
2022-07-27T21:37:56.807Z,20.50
2022-07-27T21:40:23.781Z,18.80
2022-07-27T21:42:59.186Z,18.70
2022-07-27T21:45:47.907Z,18.70
2022-07-27T21:48:18.840Z,16.30
2022-07-27T21:50:48.082Z,20.00
2022-07-27T21:53:17.200Z,18.70
2022-07-27T21:55:44.064Z,18.90
2022-07-27T21:58:32.575Z,18.50
2022-07-27T22:00:59.392Z,16.40
2022-07-27T22:03:26.389Z,18.50
2022-07-27T22:06:03.373Z,18.70
2022-07-27T22:08:34.410Z,20.80
2022-07-27T22:11:01.459Z,21.20
2022-07-27T22:13:30.653Z,18.60
2022-07-27T22:15:57.459Z,18.50
2022-07-27T22:18:24.319Z,18.60
2022-07-27T22:20:51.113Z,18.60
2022-07-27T22:23:17.838Z,18.50
2022-07-27T22:26:04.846Z,20.20
2022-07-27T22:28:49.863Z,19.00
2022-07-27T22:32:34.651Z,17.10
2022-07-27T22:34:48.067Z,19.40
2022-07-27T22:37:21.365Z,17.90
2022-07-27T22:39:59.216Z,20.50
2022-07-27T22:42:26.078Z,19.20
2022-07-27T22:44:53.321Z,17.40
2022-07-27T22:47:27.616Z,18.60
2022-07-27T22:49:54.510Z,18.20
2022-07-27T22:52:21.263Z,18.10
2022-07-27T22:54:48.146Z,20.40
2022-07-27T22:57:15.056Z,16.90
2022-07-27T23:02:24.747Z,17.80
2022-07-27T23:04:53.940Z,17.50
2022-07-27T23:07:20.777Z,19.40
2022-07-27T23:09:47.542Z,17.60
2022-07-27T23:12:14.383Z,20.30
2022-07-27T23:14:49.020Z,19.50
2022-07-27T23:17:16.128Z,20.10
2022-07-27T23:19:42.930Z,18.70
2022-07-27T23:22:11.532Z,19.50
2022-07-27T23:24:41.041Z,17.40
2022-07-27T23:27:12.069Z,17.60
2022-07-27T23:29:41.247Z,17.30
2022-07-27T23:32:11.005Z,17.30
2022-07-27T23:34:37.945Z,17.30
2022-07-27T23:37:06.755Z,17.10
2022-07-27T23:39:33.542Z,18.20
2022-07-27T23:42:00.379Z,18.70
2022-07-27T23:44:27.259Z,17.70
2022-07-27T23:46:54.206Z,15.80
2022-07-27T23:49:21.140Z,19.30
2022-07-27T23:52:00.285Z,19.40
2022-07-27T23:55:16.069Z,16.10
2022-07-27T23:57:24.244Z,17.20
2022-07-27T23:59:50.958Z,16.90
